Terminal Aerodrome Forecast
Issued by NWS

Home | Current Version | Previous Version | Text Only | Print | Product List | Glossary On
Versions: 1 2 3 4 5 6 7 8 9 10 11 12 13 14 15 16 17 18 19 20 21 22
875
FTUS43 KIND 150018 AAA
TAFLAF
TAF AMD
KLAF 150018Z 1500/1524 12014KT 5SM -SHSN BR SCT018 OVC035
     FM150100 12014KT 5SM -SHSN BR OVC012
     FM150800 14006KT 3SM BR VCSH OVC015
     FM151500 22008KT 5SM BR OVC015
      AMD LTD TO CLD VIS AND WIND 1502/1514=

USA.gov is the U.S. government's official web portal to all federal, state and local government web resources and services.